Minerva Anna — SVNP — position and weather

sailwx.info

Track history (hours):
 
Tides and Currents Weather Stations Pressure Air Temp Water Temp Dewpoint Dewpoint Depression Visibility Wind Speed Wind Dir Waves Ship Positions

Minerva Anna

Last reported at 2015-Mar-31 07:30 UTC. Time now 2015-Mar-31 20:41 UTC.
Position N 39°20' E 010°03'.

Length 183 m; draft 8 m.

Type: Tanker. MMSI: 240729000.

Date/timePositionNaut miles runAvg speedWind from/ knotsBaromVisibWave heightAir tempDewpointWater temp
2015-Mar-31 07:30N 39°20' E 010°03'2 2.4
2015-Mar-31 06:32N 39°21' E 010°01'  
2015-Mar-28 23:19N 39°20' E 010°06'2 1.6
2015-Mar-28 22:24N 39°21' E 010°05'8 1.5
2015-Mar-28 17:26N 39°27' E 009°58'2 2.1
2015-Mar-28 16:33N 39°28' E 009°57'9 4.6
2015-Mar-28 14:32N 39°19' E 009°55'14 4.2
2015-Mar-28 11:10N 39°05' E 009°58'0 0.7
2015-Mar-28 10:33N 39°05' E 009°58'9 2.9
2015-Mar-28 07:33N 39°03' E 009°47'6 5.6
2015-Mar-28 06:32N 39°01' E 009°40'6 6.3
2015-Mar-28 05:33N 38°58' E 009°33'7 6.6
2015-Mar-28 04:32N 38°58' E 009°24'7 6.9
2015-Mar-28 03:33N 39°01' E 009°17'7 7.3
2015-Mar-28 02:33N 39°04' E 009°08'5 4.7
2015-Mar-28 01:33N 39°05' E 009°02'0 0.0
2015-Mar-28 00:33N 39°05' E 009°02'0 0.0
2015-Mar-27 23:33N 39°05' E 009°02'0 0.0
2015-Mar-27 22:33N 39°05' E 009°02'0 0.0
2015-Mar-27 21:33N 39°05' E 009°02'0 0.0
2015-Mar-27 20:33N 39°05' E 009°02'0 0.0
2015-Mar-27 19:33N 39°05' E 009°02'0 0.0
2015-Mar-27 18:33N 39°05' E 009°02'0 0.0
2015-Mar-27 17:33N 39°05' E 009°02'0 0.0
2015-Mar-27 16:33N 39°05' E 009°02'0 0.0
2015-Mar-27 15:33N 39°05' E 009°02'0 0.0
2015-Mar-27 14:33N 39°05' E 009°02'0 0.0
2015-Mar-27 13:33N 39°05' E 009°02'0 0.0
2015-Mar-27 12:33N 39°05' E 009°02'0 0.0
2015-Mar-27 11:33N 39°05' E 009°02'0 0.0
2015-Mar-27 10:33N 39°05' E 009°02'0 0.0
2015-Mar-27 09:32N 39°05' E 009°02'0 0.0
2015-Mar-27 08:33N 39°05' E 009°02'0 0.0
2015-Mar-27 07:33N 39°05' E 009°02'0 0.0
2015-Mar-27 06:33N 39°05' E 009°02'0 0.0
2015-Mar-27 05:32N 39°05' E 009°02'0 0.0
2015-Mar-27 04:33N 39°05' E 009°02'0 0.0
2015-Mar-27 03:33N 39°05' E 009°02'0 0.0
2015-Mar-27 02:33N 39°05' E 009°02'0 0.0
2015-Mar-27 01:33N 39°05' E 009°02'0 0.0
2015-Mar-27 00:33N 39°05' E 009°02'0 0.0
2015-Mar-26 23:33N 39°05' E 009°02'0 0.0
2015-Mar-26 22:33N 39°05' E 009°02'0 0.0
2015-Mar-26 21:33N 39°05' E 009°02'0 0.0
2015-Mar-26 20:33N 39°05' E 009°02'0 0.0
2015-Mar-26 19:33N 39°05' E 009°02'0 0.0
2015-Mar-26 18:33N 39°05' E 009°02'0 0.0
2015-Mar-26 17:32N 39°05' E 009°02'0 0.0
2015-Mar-26 16:33N 39°05' E 009°02'0 0.0
2015-Mar-26 15:33N 39°05' E 009°02'1 0.8
2015-Mar-26 14:33N 39°06' E 009°03'2 2.4
2015-Mar-26 13:33N 39°04' E 009°05'0 0.1
2015-Mar-26 12:33N 39°03' E 009°05'0 0.0
2015-Mar-26 11:33N 39°03' E 009°05'0 0.0
2015-Mar-26 10:32N 39°03' E 009°05'0 0.0
2015-Mar-26 09:33N 39°03' E 009°05'0 0.0
2015-Mar-26 08:32N 39°03' E 009°05'0 0.0
2015-Mar-26 07:33N 39°03' E 009°05'0 0.0
2015-Mar-26 06:32N 39°03' E 009°05'0 0.0
2015-Mar-26 05:33N 39°03' E 009°05'0 0.0
2015-Mar-26 04:33N 39°03' E 009°05'0 0.0
2015-Mar-26 03:33N 39°04' E 009°05'0 0.1
2015-Mar-26 02:33N 39°04' E 009°05'0 0.0
2015-Mar-26 01:33N 39°04' E 009°05'0 0.0
2015-Mar-26 00:33N 39°04' E 009°05'0 0.0
2015-Mar-25 23:33N 39°04' E 009°05'0 0.0
2015-Mar-25 22:33N 39°04' E 009°05'0 0.0
2015-Mar-25 21:33N 39°04' E 009°05'0 0.0
2015-Mar-25 20:33N 39°04' E 009°05'0 0.0
2015-Mar-25 19:33N 39°04' E 009°05'0 0.0
2015-Mar-25 18:33N 39°04' E 009°05'0 0.0
2015-Mar-25 17:33N 39°04' E 009°05'0 0.0
2015-Mar-25 16:33N 39°04' E 009°05'0 0.0
2015-Mar-25 15:33N 39°04' E 009°05'0 0.0
2015-Mar-25 14:33N 39°04' E 009°05'0 0.0
2015-Mar-25 13:33N 39°04' E 009°05'0 0.0
2015-Mar-25 12:33N 39°04' E 009°05'0 0.0
2015-Mar-25 11:32N 39°04' E 009°05'0 0.0
2015-Mar-25 10:33N 39°04' E 009°05'0 0.0
2015-Mar-25 09:33N 39°04' E 009°05'0 0.1
2015-Mar-25 08:33N 39°04' E 009°05'0 0.0
2015-Mar-25 07:33N 39°04' E 009°05'0 0.0
2015-Mar-25 06:33N 39°04' E 009°05'0 0.1
2015-Mar-25 05:33N 39°04' E 009°05'0 0.1
2015-Mar-25 04:33N 39°04' E 009°05'0 0.0
2015-Mar-25 03:33N 39°04' E 009°05'0 0.0
2015-Mar-25 02:33N 39°04' E 009°05'0 0.0
2015-Mar-25 01:33N 39°04' E 009°05'0 0.0
2015-Mar-25 00:33N 39°04' E 009°05'0 0.0
2015-Mar-24 23:33N 39°04' E 009°05'0 0.0
2015-Mar-24 22:33N 39°04' E 009°05'0 0.0
2015-Mar-24 21:33N 39°04' E 009°05'0 0.0
2015-Mar-24 20:33N 39°04' E 009°05'0 0.0
2015-Mar-24 19:32N 39°04' E 009°05'0 0.0
2015-Mar-24 18:33N 39°04' E 009°05'0 0.0
2015-Mar-24 17:33N 39°04' E 009°05'0 0.0
2015-Mar-24 16:33N 39°04' E 009°05'0 0.1
2015-Mar-24 15:33N 39°04' E 009°05'0 0.0
2015-Mar-24 14:33N 39°04' E 009°05'0 0.0
2015-Mar-24 13:33N 39°04' E 009°05'0 0.0
2015-Mar-24 12:33N 39°04' E 009°05'0 0.0
2015-Mar-24 11:33N 39°04' E 009°05'0 0.0
2015-Mar-24 10:33N 39°04' E 009°05'0 0.0
2015-Mar-24 09:33N 39°04' E 009°05'0 0.0
2015-Mar-24 08:33N 39°04' E 009°05'0 0.0
2015-Mar-24 07:33N 39°04' E 009°05'0 0.0
2015-Mar-24 06:33N 39°04' E 009°05'0 0.0
2015-Mar-24 05:33N 39°04' E 009°05'0 0.0
2015-Mar-24 04:33N 39°04' E 009°05'0 0.0
2015-Mar-24 03:33N 39°04' E 009°05'0 0.0
2015-Mar-24 02:33N 39°04' E 009°05'0 0.0
2015-Mar-24 01:33N 39°04' E 009°05'0 0.0
2015-Mar-24 00:33N 39°04' E 009°05'0 0.0
2015-Mar-23 23:33N 39°04' E 009°05'0 0.0
2015-Mar-23 22:33N 39°04' E 009°05'0 0.0
2015-Mar-23 21:33N 39°04' E 009°05'0 0.0
2015-Mar-23 20:33N 39°04' E 009°05'0 0.0
2015-Mar-23 19:33N 39°04' E 009°05'0 0.0
2015-Mar-23 18:33N 39°04' E 009°05'0 0.0
2015-Mar-23 17:33N 39°04' E 009°05'0 0.0
2015-Mar-23 16:33N 39°04' E 009°05'0 0.0
2015-Mar-23 15:33N 39°04' E 009°05'0 0.0
2015-Mar-23 14:33N 39°04' E 009°05'0 0.0
2015-Mar-23 13:33N 39°04' E 009°05'0 0.0
2015-Mar-23 12:33N 39°04' E 009°05'0 0.0
2015-Mar-23 11:33N 39°04' E 009°05'0 0.0
2015-Mar-23 10:33N 39°04' E 009°05'0 0.0
2015-Mar-23 09:33N 39°04' E 009°05'0 0.1
2015-Mar-23 08:33N 39°04' E 009°05'0 0.0
2015-Mar-23 07:33N 39°04' E 009°05'0 0.0
2015-Mar-23 06:33N 39°04' E 009°05'0 0.0
2015-Mar-23 05:33N 39°04' E 009°05'0 0.0
2015-Mar-23 04:33N 39°04' E 009°05'0 0.1
2015-Mar-23 03:33N 39°04' E 009°05'0 0.0
2015-Mar-23 02:34N 39°04' E 009°05'0 0.0
2015-Mar-23 01:33N 39°04' E 009°05'0 0.0
2015-Mar-23 00:33N 39°04' E 009°05'0 0.0
2015-Mar-22 23:33N 39°04' E 009°05'0 0.0
2015-Mar-22 22:33N 39°04' E 009°05'0 0.0
2015-Mar-22 21:33N 39°04' E 009°05'0 0.0
2015-Mar-22 20:33N 39°04' E 009°05'0 0.0
2015-Mar-22 19:33N 39°04' E 009°05'0 0.0
2015-Mar-22 18:33N 39°04' E 009°05'0 0.0
2015-Mar-22 17:33N 39°04' E 009°05'0 0.0
2015-Mar-22 16:33N 39°04' E 009°05'0 0.1
2015-Mar-22 15:33N 39°04' E 009°05'0 0.0
2015-Mar-22 14:33N 39°04' E 009°05'0 0.0
2015-Mar-22 13:33N 39°04' E 009°05'0 0.0
2015-Mar-22 12:33N 39°04' E 009°05'0 0.0
2015-Mar-22 11:33N 39°04' E 009°05'0 0.0
2015-Mar-22 10:34N 39°04' E 009°05'0 0.0
2015-Mar-22 09:33N 39°04' E 009°05'0 0.1
2015-Mar-22 08:33N 39°04' E 009°05'0 0.0
2015-Mar-22 07:33N 39°04' E 009°05'0 0.0
2015-Mar-22 06:33N 39°04' E 009°05'0 0.0
2015-Mar-22 05:33N 39°04' E 009°05'0 0.0
2015-Mar-22 04:33N 39°04' E 009°05'0 0.0
2015-Mar-22 03:33N 39°04' E 009°05'0 0.0
2015-Mar-22 02:33N 39°04' E 009°05'0 0.0
2015-Mar-22 01:33N 39°04' E 009°05'0 0.0
2015-Mar-22 00:33N 39°04' E 009°05'0 0.0
2015-Mar-21 23:34N 39°04' E 009°05'0 0.0
2015-Mar-21 22:33N 39°04' E 009°05'0 0.0
2015-Mar-21 21:33N 39°04' E 009°05'0 0.0
2015-Mar-21 20:34N 39°04' E 009°05'0 0.0
2015-Mar-21 19:34N 39°04' E 009°05'0 0.0
2015-Mar-21 18:34N 39°04' E 009°05'0 0.0
2015-Mar-21 17:33N 39°04' E 009°05'0 0.0
2015-Mar-21 16:33N 39°04' E 009°05'0 0.0
2015-Mar-21 15:33N 39°04' E 009°05'0 0.0
2015-Mar-21 14:33N 39°04' E 009°05'0 0.0
2015-Mar-21 13:33N 39°04' E 009°05'0 0.0
2015-Mar-21 12:33N 39°04' E 009°05'0 0.0
2015-Mar-21 11:33N 39°04' E 009°05'0 0.0
2015-Mar-21 10:33N 39°04' E 009°05'0 0.0
2015-Mar-21 09:33N 39°04' E 009°05'0 0.0
2015-Mar-21 08:33N 39°04' E 009°05'0 0.0
2015-Mar-21 07:33N 39°04' E 009°05'  
Track history (hours):
 
Tides and Currents Weather Stations Pressure Air Temp Water Temp Dewpoint Dewpoint Depression Visibility Wind Speed Wind Dir Waves Ship Positions

Minerva Anna

Last reported at 2015-Mar-31 07:30 UTC. Time now 2015-Mar-31 20:41 UTC.
Position N 39°20' E 010°03'.

Length 183 m; draft 8 m.

Type: Tanker. MMSI: 240729000.

Date/timePositionNaut miles runAvg speedWind from/ knotsBaromVisibWave heightAir tempDewpointWater temp
2015-Mar-31 07:30N 39°20' E 010°03'2 2.4
2015-Mar-31 06:32N 39°21' E 010°01'  
2015-Mar-28 23:19N 39°20' E 010°06'2 1.6
2015-Mar-28 22:24N 39°21' E 010°05'8 1.5
2015-Mar-28 17:26N 39°27' E 009°58'2 2.1
2015-Mar-28 16:33N 39°28' E 009°57'9 4.6
2015-Mar-28 14:32N 39°19' E 009°55'14 4.2
2015-Mar-28 11:10N 39°05' E 009°58'0 0.7
2015-Mar-28 10:33N 39°05' E 009°58'9 2.9
2015-Mar-28 07:33N 39°03' E 009°47'6 5.6
2015-Mar-28 06:32N 39°01' E 009°40'6 6.3
2015-Mar-28 05:33N 38°58' E 009°33'7 6.6
2015-Mar-28 04:32N 38°58' E 009°24'7 6.9
2015-Mar-28 03:33N 39°01' E 009°17'7 7.3
2015-Mar-28 02:33N 39°04' E 009°08'5 4.7
2015-Mar-28 01:33N 39°05' E 009°02'0 0.0
2015-Mar-28 00:33N 39°05' E 009°02'0 0.0
2015-Mar-27 23:33N 39°05' E 009°02'0 0.0
2015-Mar-27 22:33N 39°05' E 009°02'0 0.0
2015-Mar-27 21:33N 39°05' E 009°02'0 0.0
2015-Mar-27 20:33N 39°05' E 009°02'0 0.0
2015-Mar-27 19:33N 39°05' E 009°02'0 0.0
2015-Mar-27 18:33N 39°05' E 009°02'0 0.0
2015-Mar-27 17:33N 39°05' E 009°02'0 0.0
2015-Mar-27 16:33N 39°05' E 009°02'0 0.0
2015-Mar-27 15:33N 39°05' E 009°02'0 0.0
2015-Mar-27 14:33N 39°05' E 009°02'0 0.0
2015-Mar-27 13:33N 39°05' E 009°02'0 0.0
2015-Mar-27 12:33N 39°05' E 009°02'0 0.0
2015-Mar-27 11:33N 39°05' E 009°02'0 0.0
2015-Mar-27 10:33N 39°05' E 009°02'0 0.0
2015-Mar-27 09:32N 39°05' E 009°02'0 0.0
2015-Mar-27 08:33N 39°05' E 009°02'0 0.0
2015-Mar-27 07:33N 39°05' E 009°02'0 0.0
2015-Mar-27 06:33N 39°05' E 009°02'0 0.0
2015-Mar-27 05:32N 39°05' E 009°02'0 0.0
2015-Mar-27 04:33N 39°05' E 009°02'0 0.0
2015-Mar-27 03:33N 39°05' E 009°02'0 0.0
2015-Mar-27 02:33N 39°05' E 009°02'0 0.0
2015-Mar-27 01:33N 39°05' E 009°02'0 0.0
2015-Mar-27 00:33N 39°05' E 009°02'0 0.0
2015-Mar-26 23:33N 39°05' E 009°02'0 0.0
2015-Mar-26 22:33N 39°05' E 009°02'0 0.0
2015-Mar-26 21:33N 39°05' E 009°02'0 0.0
2015-Mar-26 20:33N 39°05' E 009°02'0 0.0
2015-Mar-26 19:33N 39°05' E 009°02'0 0.0
2015-Mar-26 18:33N 39°05' E 009°02'0 0.0
2015-Mar-26 17:32N 39°05' E 009°02'0 0.0
2015-Mar-26 16:33N 39°05' E 009°02'0 0.0
2015-Mar-26 15:33N 39°05' E 009°02'1 0.8
2015-Mar-26 14:33N 39°06' E 009°03'2 2.4
2015-Mar-26 13:33N 39°04' E 009°05'0 0.1
2015-Mar-26 12:33N 39°03' E 009°05'0 0.0
2015-Mar-26 11:33N 39°03' E 009°05'0 0.0
2015-Mar-26 10:32N 39°03' E 009°05'0 0.0
2015-Mar-26 09:33N 39°03' E 009°05'0 0.0
2015-Mar-26 08:32N 39°03' E 009°05'0 0.0
2015-Mar-26 07:33N 39°03' E 009°05'0 0.0
2015-Mar-26 06:32N 39°03' E 009°05'0 0.0
2015-Mar-26 05:33N 39°03' E 009°05'0 0.0
2015-Mar-26 04:33N 39°03' E 009°05'0 0.0
2015-Mar-26 03:33N 39°04' E 009°05'0 0.1
2015-Mar-26 02:33N 39°04' E 009°05'0 0.0
2015-Mar-26 01:33N 39°04' E 009°05'0 0.0
2015-Mar-26 00:33N 39°04' E 009°05'0 0.0
2015-Mar-25 23:33N 39°04' E 009°05'0 0.0
2015-Mar-25 22:33N 39°04' E 009°05'0 0.0
2015-Mar-25 21:33N 39°04' E 009°05'0 0.0
2015-Mar-25 20:33N 39°04' E 009°05'0 0.0
2015-Mar-25 19:33N 39°04' E 009°05'0 0.0
2015-Mar-25 18:33N 39°04' E 009°05'0 0.0
2015-Mar-25 17:33N 39°04' E 009°05'0 0.0
2015-Mar-25 16:33N 39°04' E 009°05'0 0.0
2015-Mar-25 15:33N 39°04' E 009°05'0 0.0
2015-Mar-25 14:33N 39°04' E 009°05'0 0.0
2015-Mar-25 13:33N 39°04' E 009°05'0 0.0
2015-Mar-25 12:33N 39°04' E 009°05'0 0.0
2015-Mar-25 11:32N 39°04' E 009°05'0 0.0
2015-Mar-25 10:33N 39°04' E 009°05'0 0.0
2015-Mar-25 09:33N 39°04' E 009°05'0 0.1
2015-Mar-25 08:33N 39°04' E 009°05'0 0.0
2015-Mar-25 07:33N 39°04' E 009°05'0 0.0
2015-Mar-25 06:33N 39°04' E 009°05'0 0.1
2015-Mar-25 05:33N 39°04' E 009°05'0 0.1
2015-Mar-25 04:33N 39°04' E 009°05'0 0.0
2015-Mar-25 03:33N 39°04' E 009°05'0 0.0
2015-Mar-25 02:33N 39°04' E 009°05'0 0.0
2015-Mar-25 01:33N 39°04' E 009°05'0 0.0
2015-Mar-25 00:33N 39°04' E 009°05'0 0.0
2015-Mar-24 23:33N 39°04' E 009°05'0 0.0
2015-Mar-24 22:33N 39°04' E 009°05'0 0.0
2015-Mar-24 21:33N 39°04' E 009°05'0 0.0
2015-Mar-24 20:33N 39°04' E 009°05'0 0.0
2015-Mar-24 19:32N 39°04' E 009°05'0 0.0
2015-Mar-24 18:33N 39°04' E 009°05'0 0.0
2015-Mar-24 17:33N 39°04' E 009°05'0 0.0
2015-Mar-24 16:33N 39°04' E 009°05'0 0.1
2015-Mar-24 15:33N 39°04' E 009°05'0 0.0
2015-Mar-24 14:33N 39°04' E 009°05'0 0.0
2015-Mar-24 13:33N 39°04' E 009°05'0 0.0
2015-Mar-24 12:33N 39°04' E 009°05'0 0.0
2015-Mar-24 11:33N 39°04' E 009°05'0 0.0
2015-Mar-24 10:33N 39°04' E 009°05'0 0.0
2015-Mar-24 09:33N 39°04' E 009°05'0 0.0
2015-Mar-24 08:33N 39°04' E 009°05'0 0.0
2015-Mar-24 07:33N 39°04' E 009°05'0 0.0
2015-Mar-24 06:33N 39°04' E 009°05'0 0.0
2015-Mar-24 05:33N 39°04' E 009°05'0 0.0
2015-Mar-24 04:33N 39°04' E 009°05'0 0.0
2015-Mar-24 03:33N 39°04' E 009°05'0 0.0
2015-Mar-24 02:33N 39°04' E 009°05'0 0.0
2015-Mar-24 01:33N 39°04' E 009°05'0 0.0
2015-Mar-24 00:33N 39°04' E 009°05'0 0.0
2015-Mar-23 23:33N 39°04' E 009°05'0 0.0
2015-Mar-23 22:33N 39°04' E 009°05'0 0.0
2015-Mar-23 21:33N 39°04' E 009°05'0 0.0
2015-Mar-23 20:33N 39°04' E 009°05'0 0.0
2015-Mar-23 19:33N 39°04' E 009°05'0 0.0
2015-Mar-23 18:33N 39°04' E 009°05'0 0.0
2015-Mar-23 17:33N 39°04' E 009°05'0 0.0
2015-Mar-23 16:33N 39°04' E 009°05'0 0.0
2015-Mar-23 15:33N 39°04' E 009°05'0 0.0
2015-Mar-23 14:33N 39°04' E 009°05'0 0.0
2015-Mar-23 13:33N 39°04' E 009°05'0 0.0
2015-Mar-23 12:33N 39°04' E 009°05'0 0.0
2015-Mar-23 11:33N 39°04' E 009°05'0 0.0
2015-Mar-23 10:33N 39°04' E 009°05'0 0.0
2015-Mar-23 09:33N 39°04' E 009°05'0 0.1
2015-Mar-23 08:33N 39°04' E 009°05'0 0.0
2015-Mar-23 07:33N 39°04' E 009°05'0 0.0
2015-Mar-23 06:33N 39°04' E 009°05'0 0.0
2015-Mar-23 05:33N 39°04' E 009°05'0 0.0
2015-Mar-23 04:33N 39°04' E 009°05'0 0.1
2015-Mar-23 03:33N 39°04' E 009°05'0 0.0
2015-Mar-23 02:34N 39°04' E 009°05'0 0.0
2015-Mar-23 01:33N 39°04' E 009°05'0 0.0
2015-Mar-23 00:33N 39°04' E 009°05'0 0.0
2015-Mar-22 23:33N 39°04' E 009°05'0 0.0
2015-Mar-22 22:33N 39°04' E 009°05'0 0.0
2015-Mar-22 21:33N 39°04' E 009°05'0 0.0
2015-Mar-22 20:33N 39°04' E 009°05'0 0.0
2015-Mar-22 19:33N 39°04' E 009°05'0 0.0
2015-Mar-22 18:33N 39°04' E 009°05'0 0.0
2015-Mar-22 17:33N 39°04' E 009°05'0 0.0
2015-Mar-22 16:33N 39°04' E 009°05'0 0.1
2015-Mar-22 15:33N 39°04' E 009°05'0 0.0
2015-Mar-22 14:33N 39°04' E 009°05'0 0.0
2015-Mar-22 13:33N 39°04' E 009°05'0 0.0
2015-Mar-22 12:33N 39°04' E 009°05'0 0.0
2015-Mar-22 11:33N 39°04' E 009°05'0 0.0
2015-Mar-22 10:34N 39°04' E 009°05'0 0.0
2015-Mar-22 09:33N 39°04' E 009°05'0 0.1
2015-Mar-22 08:33N 39°04' E 009°05'0 0.0
2015-Mar-22 07:33N 39°04' E 009°05'0 0.0
2015-Mar-22 06:33N 39°04' E 009°05'0 0.0
2015-Mar-22 05:33N 39°04' E 009°05'0 0.0
2015-Mar-22 04:33N 39°04' E 009°05'0 0.0
2015-Mar-22 03:33N 39°04' E 009°05'0 0.0
2015-Mar-22 02:33N 39°04' E 009°05'0 0.0
2015-Mar-22 01:33N 39°04' E 009°05'0 0.0
2015-Mar-22 00:33N 39°04' E 009°05'0 0.0
2015-Mar-21 23:34N 39°04' E 009°05'0 0.0
2015-Mar-21 22:33N 39°04' E 009°05'0 0.0
2015-Mar-21 21:33N 39°04' E 009°05'0 0.0
2015-Mar-21 20:34N 39°04' E 009°05'0 0.0
2015-Mar-21 19:34N 39°04' E 009°05'0 0.0
2015-Mar-21 18:34N 39°04' E 009°05'0 0.0
2015-Mar-21 17:33N 39°04' E 009°05'0 0.0
2015-Mar-21 16:33N 39°04' E 009°05'0 0.0
2015-Mar-21 15:33N 39°04' E 009°05'0 0.0
2015-Mar-21 14:33N 39°04' E 009°05'0 0.0
2015-Mar-21 13:33N 39°04' E 009°05'0 0.0
2015-Mar-21 12:33N 39°04' E 009°05'0 0.0
2015-Mar-21 11:33N 39°04' E 009°05'0 0.0
2015-Mar-21 10:33N 39°04' E 009°05'0 0.0
2015-Mar-21 09:33N 39°04' E 009°05'0 0.0
2015-Mar-21 08:33N 39°04' E 009°05'0 0.0
2015-Mar-21 07:33N 39°04' E 009°05'  

Dump ship's entire track history